createdAt,value
2018-09-09T00:00:26.657Z,1010.97
2018-09-09T00:01:07.062Z,1010.98
2018-09-09T00:01:47.566Z,1010.94
2018-09-09T00:02:28.045Z,1010.97
2018-09-09T00:03:08.347Z,1010.98
2018-09-09T00:03:48.780Z,1010.97
2018-09-09T00:04:29.118Z,1010.95
2018-09-09T00:05:09.600Z,1010.97
2018-09-09T00:05:50.007Z,1010.97
2018-09-09T00:06:30.327Z,1010.94
2018-09-09T00:07:10.758Z,1010.99
2018-09-09T00:07:51.154Z,1010.9
2018-09-09T00:08:31.643Z,1010.96
2018-09-09T00:09:11.997Z,1010.95
2018-09-09T00:09:52.397Z,1010.99
2018-09-09T00:10:32.838Z,1010.96
2018-09-09T00:11:13.246Z,1010.97
2018-09-09T00:11:53.589Z,1010.98
2018-09-09T00:12:34.064Z,1010.95
2018-09-09T00:13:14.434Z,1010.96
2018-09-09T00:13:54.844Z,1010.94
2018-09-09T00:14:35.213Z,1010.91
2018-09-09T00:15:15.625Z,1010.91
2018-09-09T00:15:56.032Z,1010.9
2018-09-09T00:16:36.386Z,1010.91
2018-09-09T00:17:16.838Z,1010.9
2018-09-09T00:17:57.253Z,1010.9
2018-09-09T00:18:37.635Z,1010.91
2018-09-09T00:19:18.029Z,1010.91
2018-09-09T00:19:58.465Z,1010.91
2018-09-09T00:20:38.845Z,1010.9
2018-09-09T00:21:19.223Z,1010.95
2018-09-09T00:21:59.603Z,1010.95
2018-09-09T00:22:40.047Z,1010.97
2018-09-09T00:23:20.454Z,1010.97
2018-09-09T00:24:00.850Z,1010.93
2018-09-09T00:24:41.265Z,1010.93
2018-09-09T00:25:21.663Z,1010.91
2018-09-09T00:26:02.049Z,1010.93
2018-09-09T00:26:42.468Z,1010.92
2018-09-09T00:27:22.855Z,1010.93
2018-09-09T00:28:03.284Z,1010.89
2018-09-09T00:28:43.741Z,1010.9
2018-09-09T00:29:24.081Z,1010.89
2018-09-09T00:30:04.537Z,1010.89
2018-09-09T00:30:44.936Z,1010.94
2018-09-09T00:31:25.332Z,1010.88
2018-09-09T00:32:05.779Z,1010.9
2018-09-09T00:32:46.162Z,1010.92
2018-09-09T00:33:26.589Z,1010.93
2018-09-09T00:34:06.945Z,1010.92
2018-09-09T00:34:47.353Z,1010.94
2018-09-09T00:35:27.742Z,1010.93
2018-09-09T00:36:08.151Z,1010.94
2018-09-09T00:36:48.562Z,1010.92
2018-09-09T00:37:28.898Z,1010.92
2018-09-09T00:38:09.271Z,1010.93
2018-09-09T00:38:49.716Z,1010.93
2018-09-09T00:39:30.130Z,1010.9
2018-09-09T00:40:10.616Z,1010.9
2018-09-09T00:40:50.982Z,1010.9
2018-09-09T00:41:31.387Z,1010.92
2018-09-09T00:42:11.768Z,1010.92
2018-09-09T00:42:52.102Z,1010.9
2018-09-09T00:43:32.591Z,1010.94
2018-09-09T00:44:12.961Z,1010.95
2018-09-09T00:44:53.444Z,1010.96
2018-09-09T00:45:33.792Z,1010.91
2018-09-09T00:46:14.244Z,1010.96
2018-09-09T00:46:54.585Z,1010.95
2018-09-09T00:47:34.998Z,1010.94
2018-09-09T00:48:15.360Z,1010.95
2018-09-09T00:48:55.826Z,1010.91
2018-09-09T00:49:36.228Z,1010.91
2018-09-09T00:50:16.630Z,1010.97
2018-09-09T00:50:57.058Z,1010.95
2018-09-09T00:51:37.351Z,1010.89
2018-09-09T00:52:17.816Z,1010.9
2018-09-09T00:52:58.177Z,1010.92
2018-09-09T00:53:38.580Z,1010.95
2018-09-09T00:54:19.026Z,1010.91
2018-09-09T00:54:59.379Z,1010.91
2018-09-09T00:55:39.695Z,1010.92
2018-09-09T00:56:20.202Z,1010.91
2018-09-09T00:57:00.587Z,1010.9
2018-09-09T00:57:40.951Z,1010.89
2018-09-09T00:58:21.402Z,1010.88
2018-09-09T00:59:01.770Z,1010.86
2018-09-09T00:59:42.183Z,1010.82
2018-09-09T01:00:22.606Z,1010.83
2018-09-09T01:01:03.017Z,1010.78
2018-09-09T01:01:43.378Z,1010.79
2018-09-09T01:02:23.811Z,1010.78
2018-09-09T01:03:04.160Z,1010.77
2018-09-09T01:03:44.584Z,1010.72
2018-09-09T01:04:24.989Z,1010.74
2018-09-09T01:05:05.376Z,1010.72
2018-09-09T01:05:45.792Z,1010.69
2018-09-09T01:06:26.218Z,1010.71
2018-09-09T01:07:06.627Z,1010.7
2018-09-09T01:07:47.087Z,1010.71
2018-09-09T01:08:27.477Z,1010.71
2018-09-09T01:09:07.860Z,1010.7
2018-09-09T01:09:48.369Z,1010.7
2018-09-09T01:10:28.722Z,1010.73
2018-09-09T01:11:09.157Z,1010.7
2018-09-09T01:11:49.547Z,1010.65
2018-09-09T01:12:29.977Z,1010.7
2018-09-09T01:13:10.334Z,1010.66
2018-09-09T01:13:50.785Z,1010.63
2018-09-09T01:14:31.201Z,1010.59
2018-09-09T01:15:11.595Z,1010.57
2018-09-09T01:15:52.043Z,1010.56
2018-09-09T01:16:32.438Z,1010.62
2018-09-09T01:17:12.816Z,1010.53
2018-09-09T01:17:53.257Z,1010.53
2018-09-09T01:18:33.669Z,1010.53
2018-09-09T01:19:14.026Z,1010.56
2018-09-09T01:19:54.424Z,1010.56
2018-09-09T01:20:34.804Z,1010.56
2018-09-09T01:21:15.227Z,1010.59
2018-09-09T01:21:55.616Z,1010.6
2018-09-09T01:22:36.014Z,1010.61
2018-09-09T01:23:16.345Z,1010.58
2018-09-09T01:23:56.754Z,1010.6
2018-09-09T01:24:37.182Z,1010.63
2018-09-09T01:25:17.536Z,1010.64
2018-09-09T01:25:57.954Z,1010.63
2018-09-09T01:26:38.444Z,1010.65
2018-09-09T01:27:18.857Z,1010.68
2018-09-09T01:27:59.264Z,1010.71
2018-09-09T01:28:39.631Z,1010.69
2018-09-09T01:29:20.050Z,1010.72
2018-09-09T01:30:00.425Z,1010.75
2018-09-09T01:30:40.868Z,1010.74
2018-09-09T01:31:21.302Z,1010.78
2018-09-09T01:32:01.648Z,1010.76
2018-09-09T01:32:42.057Z,1010.83
2018-09-09T01:33:22.384Z,1010.83
2018-09-09T01:34:02.851Z,1010.84
2018-09-09T01:34:43.221Z,1010.84
2018-09-09T01:35:23.582Z,1010.84
2018-09-09T01:36:04.061Z,1010.89
2018-09-09T01:36:44.460Z,1010.91
2018-09-09T01:37:24.893Z,1010.88
2018-09-09T01:38:05.329Z,1010.93
2018-09-09T01:38:45.780Z,1010.93
2018-09-09T01:39:26.062Z,1010.92
2018-09-09T01:40:06.492Z,1010.94
2018-09-09T01:40:46.906Z,1010.96
2018-09-09T01:41:27.344Z,1010.99
2018-09-09T01:42:07.714Z,1011
2018-09-09T01:42:48.116Z,1010.96
2018-09-09T01:43:28.515Z,1010.96
2018-09-09T01:44:08.951Z,1010.92
2018-09-09T01:44:49.345Z,1010.92
2018-09-09T01:45:29.692Z,1010.9
2018-09-09T01:46:10.111Z,1010.9
2018-09-09T01:46:50.518Z,1010.93
2018-09-09T01:47:30.852Z,1010.91
2018-09-09T01:48:11.326Z,1010.96
2018-09-09T01:48:51.677Z,1011.02
2018-09-09T01:49:32.127Z,1011.06
2018-09-09T01:50:12.513Z,1011.05
2018-09-09T01:50:52.923Z,1011.07
2018-09-09T01:51:33.338Z,1010.98
2018-09-09T01:52:13.698Z,1011
2018-09-09T01:52:54.113Z,1010.98
2018-09-09T01:53:34.442Z,1010.97
2018-09-09T01:54:14.870Z,1010.98
2018-09-09T01:54:55.231Z,1010.96
2018-09-09T01:55:35.740Z,1010.94
2018-09-09T01:56:16.083Z,1010.89
2018-09-09T01:56:56.446Z,1010.86
2018-09-09T01:57:36.790Z,1010.88
2018-09-09T01:58:17.227Z,1010.92
2018-09-09T01:58:57.644Z,1010.96
2018-09-09T01:59:38.061Z,1010.92
2018-09-09T02:00:18.396Z,1010.92
2018-09-09T02:00:58.868Z,1010.92
2018-09-09T02:01:39.246Z,1010.88
2018-09-09T02:02:19.611Z,1010.89
2018-09-09T02:02:59.966Z,1010.84
2018-09-09T02:03:40.364Z,1010.87
2018-09-09T02:04:20.769Z,1010.83
2018-09-09T02:05:01.176Z,1010.84
2018-09-09T02:05:41.629Z,1010.83
2018-09-09T02:06:22.027Z,1010.84
2018-09-09T02:07:02.518Z,1010.8
2018-09-09T02:07:42.900Z,1010.81
2018-09-09T02:08:23.198Z,1010.79
2018-09-09T02:09:03.633Z,1010.78
2018-09-09T02:09:44.010Z,1010.8
2018-09-09T02:10:24.447Z,1010.79
2018-09-09T02:11:04.878Z,1010.8
2018-09-09T02:11:45.263Z,1010.73
2018-09-09T02:12:25.659Z,1010.7
2018-09-09T02:13:06.041Z,1010.75
2018-09-09T02:13:46.415Z,1010.74
2018-09-09T02:14:26.842Z,1010.74
2018-09-09T02:15:07.255Z,1010.78
2018-09-09T02:15:47.689Z,1010.77
2018-09-09T02:16:28.075Z,1010.78
2018-09-09T02:17:08.486Z,1010.78
2018-09-09T02:17:48.982Z,1010.77
2018-09-09T02:18:29.350Z,1010.68
2018-09-09T02:19:09.709Z,1010.71
2018-09-09T02:19:50.146Z,1010.69
2018-09-09T02:20:30.533Z,1010.67
2018-09-09T02:21:10.971Z,1010.67
2018-09-09T02:21:51.329Z,1010.67
2018-09-09T02:22:31.728Z,1010.64
2018-09-09T02:23:12.160Z,1010.64
2018-09-09T02:23:52.547Z,1010.63
2018-09-09T02:24:32.938Z,1010.6
2018-09-09T02:25:13.344Z,1010.54
2018-09-09T02:25:53.863Z,1010.58
2018-09-09T02:26:34.154Z,1010.55
2018-09-09T02:27:14.539Z,1010.55
2018-09-09T02:27:54.943Z,1010.58
2018-09-09T02:28:35.358Z,1010.6
2018-09-09T02:29:15.729Z,1010.61
2018-09-09T02:29:56.212Z,1010.65
2018-09-09T02:30:36.602Z,1010.63
2018-09-09T02:31:16.948Z,1010.66
2018-09-09T02:31:57.346Z,1010.71
2018-09-09T02:32:37.815Z,1010.72
2018-09-09T02:33:18.130Z,1010.79
2018-09-09T02:33:58.614Z,1010.78
2018-09-09T02:34:38.991Z,1010.85
2018-09-09T02:35:19.422Z,1010.84
2018-09-09T02:35:59.833Z,1010.83
2018-09-09T02:36:40.267Z,1010.83
2018-09-09T02:37:20.624Z,1010.84
2018-09-09T02:38:01.108Z,1010.8
2018-09-09T02:38:41.478Z,1010.8
2018-09-09T02:39:21.882Z,1010.82
2018-09-09T02:40:02.347Z,1010.85
2018-09-09T02:40:42.700Z,1010.89
2018-09-09T02:41:23.177Z,1010.89
2018-09-09T02:42:03.584Z,1010.9
2018-09-09T02:42:43.987Z,1010.87
2018-09-09T02:43:24.372Z,1010.94
2018-09-09T02:44:04.755Z,1010.93
2018-09-09T02:44:45.166Z,1010.95
2018-09-09T02:45:25.522Z,1010.9
2018-09-09T02:46:05.929Z,1010.9
2018-09-09T02:46:46.334Z,1010.88
2018-09-09T02:47:26.705Z,1010.87
2018-09-09T02:48:07.166Z,1010.87
2018-09-09T02:48:47.592Z,1010.9
2018-09-09T02:49:27.955Z,1010.93
2018-09-09T02:50:08.455Z,1010.97
2018-09-09T02:50:48.817Z,1010.98
2018-09-09T02:51:29.223Z,1010.97
2018-09-09T02:52:09.560Z,1010.97
2018-09-09T02:52:50.021Z,1011
2018-09-09T02:53:30.429Z,1011.01
2018-09-09T02:54:10.881Z,1011.04
2018-09-09T02:54:51.257Z,1011.05
2018-09-09T02:55:31.615Z,1011.08
2018-09-09T02:56:12.036Z,1011.04
2018-09-09T02:56:52.469Z,1011.06
2018-09-09T02:57:32.913Z,1011.03
2018-09-09T02:58:13.193Z,1011.08
2018-09-09T02:58:53.607Z,1011.07
2018-09-09T02:59:33.966Z,1011.04
2018-09-09T03:00:14.328Z,1011.03
2018-09-09T03:00:54.764Z,1011
2018-09-09T03:01:35.218Z,1011.01
2018-09-09T03:02:15.707Z,1011.01
2018-09-09T03:02:56.055Z,1010.98
2018-09-09T03:03:36.457Z,1011
2018-09-09T03:04:16.830Z,1011
2018-09-09T03:04:57.220Z,1010.96
2018-09-09T03:05:37.618Z,1011
2018-09-09T03:06:18.024Z,1010.97
2018-09-09T03:06:58.479Z,1010.98
2018-09-09T03:07:38.848Z,1010.99
2018-09-09T03:08:19.270Z,1011.01
2018-09-09T03:08:59.674Z,1011.01
2018-09-09T03:09:40.026Z,1011
2018-09-09T03:10:20.400Z,1011
2018-09-09T03:11:00.827Z,1011.04
2018-09-09T03:11:41.219Z,1011.05
2018-09-09T03:12:21.596Z,1011.02
2018-09-09T03:13:02.038Z,1011.03
2018-09-09T03:13:42.423Z,1011
2018-09-09T03:14:22.769Z,1011.02
2018-09-09T03:15:03.237Z,1010.96
2018-09-09T03:15:43.639Z,1010.97
2018-09-09T03:16:23.954Z,1010.97
2018-09-09T03:17:04.421Z,1010.95
2018-09-09T03:17:44.780Z,1010.99
2018-09-09T03:18:25.159Z,1010.95
2018-09-09T03:19:05.588Z,1011
2018-09-09T03:19:45.996Z,1010.98
2018-09-09T03:20:26.403Z,1010.95
2018-09-09T03:21:06.849Z,1010.95
2018-09-09T03:21:47.239Z,1010.97
2018-09-09T03:22:27.654Z,1010.93
2018-09-09T03:23:08.025Z,1010.95
2018-09-09T03:23:48.424Z,1010.93
2018-09-09T03:24:28.808Z,1010.91
2018-09-09T03:25:09.186Z,1010.94
2018-09-09T03:25:49.632Z,1010.9
2018-09-09T03:26:29.994Z,1010.92
2018-09-09T03:27:10.432Z,1010.88
2018-09-09T03:27:50.817Z,1010.95
2018-09-09T03:28:31.231Z,1010.88
2018-09-09T03:29:11.655Z,1010.86
2018-09-09T03:29:52.001Z,1010.83
2018-09-09T03:30:32.459Z,1010.77
2018-09-09T03:31:12.900Z,1010.81
2018-09-09T03:31:53.295Z,1010.78
2018-09-09T03:32:33.757Z,1010.73
2018-09-09T03:33:14.114Z,1010.67
2018-09-09T03:33:54.532Z,1010.68
2018-09-09T03:34:34.957Z,1010.69
2018-09-09T03:35:15.368Z,1010.66
2018-09-09T03:35:55.772Z,1010.63
2018-09-09T03:36:36.165Z,1010.63
2018-09-09T03:37:16.591Z,1010.58
2018-09-09T03:37:56.935Z,1010.59
2018-09-09T03:38:37.363Z,1010.55
2018-09-09T03:39:17.759Z,1010.59
2018-09-09T03:39:58.216Z,1010.57
2018-09-09T03:40:38.500Z,1010.63
2018-09-09T03:41:18.887Z,1010.66
2018-09-09T03:41:59.368Z,1010.63
2018-09-09T03:42:39.722Z,1010.63
2018-09-09T03:43:20.131Z,1010.59
2018-09-09T03:44:00.507Z,1010.6
2018-09-09T03:44:40.900Z,1010.63
2018-09-09T03:45:21.339Z,1010.65
2018-09-09T03:46:01.689Z,1010.65
2018-09-09T03:46:42.093Z,1010.67
2018-09-09T03:47:22.534Z,1010.68
2018-09-09T03:48:02.933Z,1010.68
2018-09-09T03:48:43.340Z,1010.71
2018-09-09T03:49:23.709Z,1010.75
2018-09-09T03:50:04.104Z,1010.74
2018-09-09T03:50:44.464Z,1010.73
2018-09-09T03:51:24.870Z,1010.66
2018-09-09T03:52:05.251Z,1010.67
2018-09-09T03:52:45.636Z,1010.62
2018-09-09T03:53:26.078Z,1010.64
2018-09-09T03:54:06.484Z,1010.64
2018-09-09T03:54:46.846Z,1010.62
2018-09-09T03:55:27.305Z,1010.62
2018-09-09T03:56:07.687Z,1010.61
2018-09-09T03:56:48.117Z,1010.59
2018-09-09T03:57:28.543Z,1010.59
2018-09-09T03:58:08.900Z,1010.55
2018-09-09T03:58:49.355Z,1010.53
2018-09-09T03:59:29.691Z,1010.53
2018-09-09T04:00:10.176Z,1010.53
2018-09-09T04:00:50.583Z,1010.58
2018-09-09T04:01:30.977Z,1010.53
2018-09-09T04:02:11.419Z,1010.56
2018-09-09T04:02:51.818Z,1010.54
2018-09-09T04:03:32.229Z,1010.51
2018-09-09T04:04:12.609Z,1010.45
2018-09-09T04:04:52.999Z,1010.42
2018-09-09T04:05:33.413Z,1010.38
2018-09-09T04:06:13.813Z,1010.37
2018-09-09T04:06:54.247Z,1010.39
2018-09-09T04:07:34.589Z,1010.41
2018-09-09T04:08:14.996Z,1010.49
2018-09-09T04:08:55.390Z,1010.51
2018-09-09T04:09:35.773Z,1010.58
2018-09-09T04:10:16.191Z,1010.61
2018-09-09T04:10:56.657Z,1010.65
2018-09-09T04:11:36.986Z,1010.66
2018-09-09T04:12:17.378Z,1010.6
2018-09-09T04:12:57.765Z,1010.57
2018-09-09T04:13:38.214Z,1010.53
2018-09-09T04:14:18.604Z,1010.53
2018-09-09T04:14:59.177Z,1010.55
2018-09-09T04:15:39.518Z,1010.57
2018-09-09T04:16:19.925Z,1010.6
2018-09-09T04:17:00.341Z,1010.68
2018-09-09T04:17:40.730Z,1010.68
2018-09-09T04:18:21.085Z,1010.7
2018-09-09T04:19:01.479Z,1010.72
2018-09-09T04:19:41.878Z,1010.75
2018-09-09T04:20:22.255Z,1010.76
2018-09-09T04:21:02.666Z,1010.8
2018-09-09T04:21:43.069Z,1010.85
2018-09-09T04:22:23.456Z,1010.89
2018-09-09T04:23:03.909Z,1010.92
2018-09-09T04:23:44.385Z,1010.99
2018-09-09T04:24:24.725Z,1011
2018-09-09T04:25:05.141Z,1011.03
2018-09-09T04:25:45.532Z,1011.01
2018-09-09T04:26:25.877Z,1010.98
2018-09-09T04:27:06.301Z,1010.97
2018-09-09T05:06:47.323Z,1010.87
2018-09-09T05:07:38.430Z,1010.91
2018-09-09T05:08:30.650Z,1010.9
2018-09-09T05:09:22.450Z,1010.92
2018-09-09T05:10:15.021Z,1010.91
2018-09-09T05:11:07.003Z,1010.94
2018-09-09T05:13:32.793Z,1010.9
2018-09-09T05:14:24.681Z,1010.89
2018-09-09T05:15:17.001Z,1010.93
2018-09-09T05:16:08.814Z,1010.93
2018-09-09T05:17:01.191Z,1010.99
2018-09-09T05:17:53.214Z,1010.99
2018-09-09T05:18:45.275Z,1011.07
2018-09-09T05:19:38.202Z,1011.08
2018-09-09T05:20:30.341Z,1011.11
2018-09-09T05:21:22.890Z,1011.08
2018-09-09T05:22:15.411Z,1011.03
2018-09-09T05:23:07.812Z,1011.02
2018-09-09T05:24:00.366Z,1011.04
2018-09-09T05:24:52.318Z,1011.03
2018-09-09T05:25:44.949Z,1011.03
2018-09-09T05:26:37.560Z,1011.03
2018-09-09T05:27:30.047Z,1011.05
2018-09-09T05:28:22.472Z,1011.06
2018-09-09T05:29:14.970Z,1011.1
2018-09-09T05:30:07.248Z,1011.15
2018-09-09T05:30:55.561Z,1011.09
2018-09-09T05:31:35.940Z,1011.1
2018-09-09T05:32:16.359Z,1011.09
2018-09-09T05:32:56.768Z,1011.1
2018-09-09T05:33:37.219Z,1011.15
2018-09-09T05:34:17.613Z,1011.14
2018-09-09T05:34:58.045Z,1011.15
2018-09-09T05:35:38.375Z,1011.2
2018-09-09T05:36:18.837Z,1011.25
2018-09-09T05:36:59.193Z,1011.29
2018-09-09T05:37:39.614Z,1011.32
2018-09-09T05:38:19.996Z,1011.3
2018-09-09T05:39:00.462Z,1011.27
2018-09-09T05:39:40.791Z,1011.28
2018-09-09T05:40:21.163Z,1011.24
2018-09-09T05:41:01.571Z,1011.25
2018-09-09T05:41:41.995Z,1011.26
2018-09-09T05:42:22.400Z,1011.24
2018-09-09T05:43:02.835Z,1011.26
2018-09-09T05:43:43.212Z,1011.26
2018-09-09T05:44:23.622Z,1011.27
2018-09-09T05:45:03.973Z,1011.29
2018-09-09T05:45:44.369Z,1011.28
2018-09-09T05:46:24.763Z,1011.26
2018-09-09T05:47:05.195Z,1011.26
2018-09-09T05:47:45.540Z,1011.25
2018-09-09T05:48:25.950Z,1011.23
2018-09-09T05:49:06.390Z,1011.23
2018-09-09T05:49:46.741Z,1011.21
2018-09-09T05:50:27.118Z,1011.24
2018-09-09T05:51:07.551Z,1011.23
2018-09-09T05:51:48.035Z,1011.24
2018-09-09T05:52:28.426Z,1011.17
2018-09-09T05:53:08.794Z,1011.16
2018-09-09T05:53:49.218Z,1011.19
2018-09-09T05:54:29.580Z,1011.19
2018-09-09T05:55:09.958Z,1011.25
2018-09-09T05:55:50.311Z,1011.21
2018-09-09T05:56:30.793Z,1011.29
2018-09-09T05:57:11.148Z,1011.26
2018-09-09T05:57:51.577Z,1011.27
2018-09-09T05:58:31.965Z,1011.25
2018-09-09T05:59:12.355Z,1011.27
2018-09-09T05:59:52.711Z,1011.3
2018-09-09T06:00:33.085Z,1011.31
2018-09-09T06:01:13.589Z,1011.27
2018-09-09T06:01:53.950Z,1011.24
2018-09-09T06:02:34.301Z,1011.24
2018-09-09T06:03:14.728Z,1011.25
2018-09-09T06:03:55.126Z,1011.25
2018-09-09T06:04:35.602Z,1011.26
2018-09-09T06:05:16.005Z,1011.26
2018-09-09T06:05:56.337Z,1011.27
2018-09-09T06:06:36.716Z,1011.29
2018-09-09T06:07:17.035Z,1011.36
2018-09-09T06:07:57.483Z,1011.36
2018-09-09T06:08:37.915Z,1011.39
2018-09-09T06:09:18.301Z,1011.35
2018-09-09T06:09:58.747Z,1011.39
2018-09-09T06:10:39.054Z,1011.41
2018-09-09T06:11:19.536Z,1011.38
2018-09-09T06:11:59.975Z,1011.39
2018-09-09T06:12:40.326Z,1011.37
2018-09-09T06:13:20.777Z,1011.41
2018-09-09T06:14:01.156Z,1011.48
2018-09-09T06:14:41.590Z,1011.44
2018-09-09T06:15:21.965Z,1011.44
2018-09-09T06:16:02.369Z,1011.45
2018-09-09T06:16:42.801Z,1011.46
2018-09-09T06:17:23.162Z,1011.48
2018-09-09T06:18:03.559Z,1011.5
2018-09-09T06:18:43.939Z,1011.52
2018-09-09T06:19:24.355Z,1011.52
2018-09-09T06:20:04.718Z,1011.54
2018-09-09T06:20:45.200Z,1011.51
2018-09-09T06:21:25.622Z,1011.53
2018-09-09T06:22:06.058Z,1011.55
2018-09-09T06:22:46.427Z,1011.6
2018-09-09T06:23:26.851Z,1011.59
2018-09-09T06:24:07.324Z,1011.63
2018-09-09T06:24:47.670Z,1011.63
2018-09-09T06:25:28.090Z,1011.62
2018-09-09T06:26:08.503Z,1011.59
2018-09-09T06:26:48.915Z,1011.6
2018-09-09T06:27:29.339Z,1011.61
2018-09-09T06:28:09.759Z,1011.57
2018-09-09T06:28:50.066Z,1011.59
2018-09-09T06:29:30.529Z,1011.61
2018-09-09T06:30:10.857Z,1011.63
2018-09-09T06:30:51.236Z,1011.63
2018-09-09T06:31:31.683Z,1011.62
2018-09-09T06:32:12.054Z,1011.67
2018-09-09T06:32:52.526Z,1011.66
2018-09-09T06:33:32.935Z,1011.65
2018-09-09T06:34:13.291Z,1011.62
2018-09-09T06:34:53.739Z,1011.63
2018-09-09T06:35:34.110Z,1011.63
2018-09-09T06:36:14.505Z,1011.64
2018-09-09T06:36:54.963Z,1011.55
2018-09-09T06:37:35.244Z,1011.58
2018-09-09T06:38:15.665Z,1011.64
2018-09-09T06:38:56.139Z,1011.59
2018-09-09T06:39:36.502Z,1011.64
2018-09-09T06:40:16.919Z,1011.61
2018-09-09T06:40:57.325Z,1011.61
2018-09-09T06:41:37.721Z,1011.57
2018-09-09T06:42:18.103Z,1011.63
2018-09-09T06:42:58.509Z,1011.61
2018-09-09T06:43:38.939Z,1011.64
2018-09-09T06:44:19.305Z,1011.59
2018-09-09T06:44:59.725Z,1011.62
2018-09-09T06:45:40.166Z,1011.59
2018-09-09T06:46:20.518Z,1011.6
2018-09-09T06:47:00.953Z,1011.59
2018-09-09T06:47:41.359Z,1011.6
2018-09-09T06:48:21.754Z,1011.58
2018-09-09T06:49:02.152Z,1011.62
2018-09-09T06:49:42.569Z,1011.6
2018-09-09T06:50:22.932Z,1011.61
2018-09-09T06:51:03.349Z,1011.61
2018-09-09T06:51:43.780Z,1011.59
2018-09-09T06:52:24.146Z,1011.59
2018-09-09T06:53:04.584Z,1011.57
2018-09-09T06:53:44.959Z,1011.58
2018-09-09T06:54:25.323Z,1011.58
2018-09-09T06:55:05.725Z,1011.59
2018-09-09T06:55:46.094Z,1011.57
2018-09-09T06:56:26.553Z,1011.59
2018-09-09T06:57:06.888Z,1011.58
2018-09-09T06:57:47.265Z,1011.6
2018-09-09T06:58:27.674Z,1011.61
2018-09-09T06:59:08.145Z,1011.61
2018-09-09T06:59:48.469Z,1011.61
2018-09-09T07:00:28.904Z,1011.67
2018-09-09T07:01:09.283Z,1011.63
2018-09-09T07:01:49.716Z,1011.61
2018-09-09T07:02:30.091Z,1011.6
2018-09-09T07:03:10.518Z,1011.64
2018-09-09T07:03:51.009Z,1011.56
2018-09-09T07:04:31.340Z,1011.59
2018-09-09T07:05:11.814Z,1011.62
2018-09-09T07:05:52.172Z,1011.58
2018-09-09T07:06:32.597Z,1011.59
2018-09-09T07:07:13.020Z,1011.61
2018-09-09T07:07:53.449Z,1011.58
2018-09-09T07:08:33.945Z,1011.62
2018-09-09T07:09:14.351Z,1011.61
2018-09-09T07:09:54.738Z,1011.6
2018-09-09T07:10:35.148Z,1011.6
2018-09-09T07:11:15.742Z,1011.57
2018-09-09T07:11:56.179Z,1011.6
2018-09-09T07:12:36.350Z,1011.55
2018-09-09T07:13:16.818Z,1011.54
2018-09-09T07:13:57.233Z,1011.55
2018-09-09T07:14:37.596Z,1011.57
2018-09-09T07:15:17.989Z,1011.56
2018-09-09T07:15:58.449Z,1011.58
2018-09-09T07:16:38.784Z,1011.54
2018-09-09T07:17:19.239Z,1011.59
2018-09-09T07:17:59.631Z,1011.62
2018-09-09T07:18:40.105Z,1011.6
2018-09-09T07:19:20.473Z,1011.66
2018-09-09T07:20:00.869Z,1011.66
2018-09-09T07:20:41.328Z,1011.63
2018-09-09T07:21:21.668Z,1011.69
2018-09-09T07:22:02.110Z,1011.68
2018-09-09T07:22:42.572Z,1011.69
2018-09-09T07:23:22.832Z,1011.69
2018-09-09T07:24:03.269Z,1011.69
2018-09-09T07:24:43.696Z,1011.69
2018-09-09T07:25:24.101Z,1011.67
2018-09-09T07:26:04.564Z,1011.61
2018-09-09T07:26:45.014Z,1011.65
2018-09-09T07:27:25.387Z,1011.66
2018-09-09T07:28:05.795Z,1011.63
2018-09-09T07:28:46.201Z,1011.65
2018-09-09T07:29:26.568Z,1011.71
2018-09-09T07:30:07.026Z,1011.68
2018-09-09T07:30:47.434Z,1011.73
2018-09-09T07:31:27.825Z,1011.71
2018-09-09T07:32:08.285Z,1011.73
2018-09-09T07:32:48.695Z,1011.76
2018-09-09T07:33:29.026Z,1011.73
2018-09-09T07:34:09.453Z,1011.73
2018-09-09T07:34:49.785Z,1011.73
2018-09-09T07:35:30.255Z,1011.75
2018-09-09T07:36:10.673Z,1011.74
2018-09-09T07:36:51.061Z,1011.77
2018-09-09T07:37:31.491Z,1011.78
2018-09-09T07:38:11.891Z,1011.82
2018-09-09T07:38:52.300Z,1011.83
2018-09-09T07:39:32.672Z,1011.78
2018-09-09T07:40:13.107Z,1011.83
2018-09-09T07:40:53.495Z,1011.85
2018-09-09T07:41:33.974Z,1011.85
2018-09-09T07:42:14.335Z,1011.85
2018-09-09T07:42:54.741Z,1011.83
2018-09-09T07:43:35.139Z,1011.86
2018-09-09T07:44:15.598Z,1011.9
2018-09-09T07:44:55.952Z,1011.91
2018-09-09T07:45:36.450Z,1011.92
2018-09-09T07:46:16.809Z,1011.92
2018-09-09T07:46:57.157Z,1011.94
2018-09-09T07:47:37.700Z,1011.98
2018-09-09T07:48:18.022Z,1011.99
2018-09-09T07:48:58.454Z,1012.01
2018-09-09T07:49:38.820Z,1011.98
2018-09-09T07:50:19.182Z,1012.02
2018-09-09T07:50:59.595Z,1012.02
2018-09-09T07:51:40.015Z,1012.05
2018-09-09T07:52:20.404Z,1012.04
2018-09-09T07:53:00.821Z,1012.03
2018-09-09T07:53:41.310Z,1012.04
2018-09-09T07:54:21.657Z,1012.03
2018-09-09T07:55:02.100Z,1012.04
2018-09-09T07:55:42.508Z,1012.05
2018-09-09T07:56:22.910Z,1012.07
2018-09-09T07:57:03.370Z,1012.06
2018-09-09T07:57:43.795Z,1012.09
2018-09-09T07:58:24.144Z,1012.09
2018-09-09T07:59:04.500Z,1012.05
2018-09-09T07:59:44.949Z,1012.03
2018-09-09T08:00:25.444Z,1012.03
2018-09-09T08:01:05.820Z,1011.98
2018-09-09T08:01:46.197Z,1012.01
2018-09-09T08:02:26.592Z,1012.01
2018-09-09T08:03:07.002Z,1011.99
2018-09-09T08:03:47.392Z,1012.02
2018-09-09T08:04:27.845Z,1011.97
2018-09-09T08:05:08.303Z,1012.05
2018-09-09T08:05:48.605Z,1012.06
2018-09-09T08:06:28.983Z,1012.05
2018-09-09T08:07:09.456Z,1012.03
2018-09-09T08:07:49.784Z,1012.05
2018-09-09T08:08:30.296Z,1012.03
2018-09-09T08:09:10.720Z,1012.05
2018-09-09T08:09:51.093Z,1012.09
2018-09-09T08:10:31.463Z,1012.05
2018-09-09T08:11:11.929Z,1012.07
2018-09-09T08:11:52.328Z,1012.07
2018-09-09T08:12:32.698Z,1012.07
2018-09-09T08:13:13.117Z,1012.05
2018-09-09T08:13:53.610Z,1012.04
2018-09-09T08:14:33.966Z,1012.07
2018-09-09T08:15:14.425Z,1012.02
2018-09-09T08:15:54.886Z,1012.05
2018-09-09T08:16:35.335Z,1012.04
2018-09-09T08:17:15.691Z,1012.04
2018-09-09T08:17:56.089Z,1012.05
2018-09-09T08:18:36.569Z,1012
2018-09-09T08:19:16.944Z,1012.01
2018-09-09T08:19:57.406Z,1012.02
2018-09-09T08:20:37.854Z,1012.04
2018-09-09T08:21:18.186Z,1012.05
2018-09-09T08:21:58.606Z,1012.07
2018-09-09T08:22:39.091Z,1012.03
2018-09-09T08:23:19.451Z,1012.07
2018-09-09T08:23:59.920Z,1012.03
2018-09-09T08:24:40.296Z,1012.05
2018-09-09T08:25:20.754Z,1012.02
2018-09-09T08:26:01.175Z,1012.02
2018-09-09T08:26:41.566Z,1012.03
2018-09-09T08:27:22.014Z,1012.06
2018-09-09T08:28:02.493Z,1012.08
2018-09-09T08:28:42.952Z,1012.05
2018-09-09T08:29:23.351Z,1012.08
2018-09-09T08:30:03.724Z,1012.1
2018-09-09T08:30:44.098Z,1012.1
2018-09-09T08:31:24.516Z,1012.13
2018-09-09T08:32:04.891Z,1012.13
2018-09-09T08:32:45.344Z,1012.13
2018-09-09T08:33:25.787Z,1012.11
2018-09-09T08:34:06.166Z,1012.09
2018-09-09T08:34:46.569Z,1012.08
2018-09-09T08:35:26.968Z,1012.06
2018-09-09T08:36:07.304Z,1012.08
2018-09-09T08:36:47.810Z,1012.1
2018-09-09T08:37:28.247Z,1012.06
2018-09-09T08:38:08.591Z,1012.04
2018-09-09T08:38:49.095Z,1012.06
2018-09-09T08:39:29.552Z,1012.03
2018-09-09T08:40:10.031Z,1012.07
2018-09-09T08:40:50.475Z,1012.06
2018-09-09T08:41:30.807Z,1012.08
2018-09-09T08:42:11.219Z,1012.08
2018-09-09T08:42:51.618Z,1012.07
2018-09-09T08:43:32.055Z,1012.08
2018-09-09T08:44:12.480Z,1012.08
2018-09-09T08:44:52.926Z,1012.1
2018-09-09T08:45:33.452Z,1012.11
2018-09-09T08:46:13.702Z,1012.1
2018-09-09T08:46:54.109Z,1012.09
2018-09-09T08:47:34.510Z,1012.09
2018-09-09T08:48:14.953Z,1012.07
2018-09-09T08:48:55.345Z,1012.11
2018-09-09T08:49:35.742Z,1012.11
2018-09-09T08:50:16.153Z,1012.09
2018-09-09T08:50:56.623Z,1012.05
2018-09-09T08:51:37.006Z,1012.1
2018-09-09T08:52:17.453Z,1012.09
2018-09-09T08:52:57.821Z,1012.07
2018-09-09T08:53:38.243Z,1012.03
2018-09-09T08:54:18.666Z,1012.07
2018-09-09T08:54:59.063Z,1012.09
2018-09-09T08:55:39.418Z,1012.07
2018-09-09T08:56:19.928Z,1012.06
2018-09-09T08:57:00.361Z,1012.1